Terminal Aerodrome Forecast
Issued by NWS Wilmington, OH

Home | Current Version | Previous Version | Text Only | Print | Product List | Glossary On
Versions: 1 2 3 4 5 6 7 8 9 10 11 12 13 14 15 16 17 18 19 20 21
000
FTUS41 KILN 260200 AAA
TAFDAY
TAF AMD
KDAY 260222Z 2602/2624 19010KT P6SM SCT040 BKN080
     FM260800 19008KT P6SM BKN040
     FM261300 21012KT P6SM SCT035 BKN200
     FM261700 20015G25KT P6SM VCTS BKN035CB=

USA.gov is the U.S. government's official web portal to all federal, state and local government web resources and services.